Terminal Aerodrome Forecast
Issued by NWS

Home | Current Version | Previous Version | Text Only | Print | Product List | Glossary Off
Versions: 1 2 3 4 5 6 7 8 9 10 11 12 13 14 15 16

000
FTUS45 KGGW 241100 RRA
TAFSDY
TAF
KSDY 241146Z 2412/2512 VRB06KT P6SM VCSH BKN060
     FM241800 VRB03KT 3SM -FZRASN OVC040
     FM250000 VRB06KT P6SM VCSH BKN050
     FM250600 VRB03KT 3SM -SN OVC019
      AMD LTD TO CLD VIS AND WIND=

USA.gov is the U.S. government's official web portal to all federal, state and local government web resources and services.